sensor_id;sensor_type;location;lat;lon;timestamp;temperature;humidity
16253;DHT22;8234;41.480;2.306;2022-09-24T00:04:37;17.40;99.90
16253;DHT22;8234;41.480;2.306;2022-09-24T00:14:41;17.60;99.90
16253;DHT22;8234;41.480;2.306;2022-09-24T00:24:46;17.70;99.90
16253;DHT22;8234;41.480;2.306;2022-09-24T00:35:07;17.60;99.90
16253;DHT22;8234;41.480;2.306;2022-09-24T00:45:13;17.90;99.90
16253;DHT22;8234;41.480;2.306;2022-09-24T00:55:17;18.30;99.90
16253;DHT22;8234;41.480;2.306;2022-09-24T01:05:23;18.20;99.90
16253;DHT22;8234;41.480;2.306;2022-09-24T01:15:29;18.40;99.90
16253;DHT22;8234;41.480;2.306;2022-09-24T01:25:43;18.10;99.90
16253;DHT22;8234;41.480;2.306;2022-09-24T01:36:03;18.40;99.90
16253;DHT22;8234;41.480;2.306;2022-09-24T01:46:10;18.00;99.90
16253;DHT22;8234;41.480;2.306;2022-09-24T01:56:19;17.90;99.90
16253;DHT22;8234;41.480;2.306;2022-09-24T02:06:29;18.30;99.90
16253;DHT22;8234;41.480;2.306;2022-09-24T02:16:45;18.00;99.90
16253;DHT22;8234;41.480;2.306;2022-09-24T02:26:49;17.80;99.90
16253;DHT22;8234;41.480;2.306;2022-09-24T02:36:58;18.00;99.90
16253;DHT22;8234;41.480;2.306;2022-09-24T02:47:02;17.80;99.90
16253;DHT22;8234;41.480;2.306;2022-09-24T02:57:07;17.60;99.90
16253;DHT22;8234;41.480;2.306;2022-09-24T03:07:11;17.50;99.90
16253;DHT22;8234;41.480;2.306;2022-09-24T03:17:17;17.60;99.90
16253;DHT22;8234;41.480;2.306;2022-09-24T03:27:20;17.80;99.90
16253;DHT22;8234;41.480;2.306;2022-09-24T03:37:26;17.80;99.90
16253;DHT22;8234;41.480;2.306;2022-09-24T03:47:29;17.90;99.90
16253;DHT22;8234;41.480;2.306;2022-09-24T03:57:34;18.00;99.90
16253;DHT22;8234;41.480;2.306;2022-09-24T04:07:38;18.30;99.90
16253;DHT22;8234;41.480;2.306;2022-09-24T04:17:50;18.30;99.90
16253;DHT22;8234;41.480;2.306;2022-09-24T04:27:55;18.50;99.90
16253;DHT22;8234;41.480;2.306;2022-09-24T04:38:01;18.60;99.90
16253;DHT22;8234;41.480;2.306;2022-09-24T04:48:05;18.70;99.90
16253;DHT22;8234;41.480;2.306;2022-09-24T04:58:10;18.70;99.90
16253;DHT22;8234;41.480;2.306;2022-09-24T05:08:14;18.70;99.90
16253;DHT22;8234;41.480;2.306;2022-09-24T05:18:19;18.90;99.90
16253;DHT22;8234;41.480;2.306;2022-09-24T05:28:23;19.00;99.90
16253;DHT22;8234;41.480;2.306;2022-09-24T05:38:29;19.10;99.90
16253;DHT22;8234;41.480;2.306;2022-09-24T05:48:34;19.10;99.90
16253;DHT22;8234;41.480;2.306;2022-09-24T05:58:39;19.10;99.90
16253;DHT22;8234;41.480;2.306;2022-09-24T06:08:43;19.10;99.90
16253;DHT22;8234;41.480;2.306;2022-09-24T06:18:48;19.20;99.90
16253;DHT22;8234;41.480;2.306;2022-09-24T06:28:51;19.20;99.90
16253;DHT22;8234;41.480;2.306;2022-09-24T06:38:57;19.40;99.90
16253;DHT22;8234;41.480;2.306;2022-09-24T06:49:01;19.40;99.90
16253;DHT22;8234;41.480;2.306;2022-09-24T06:59:06;19.60;99.90
16253;DHT22;8234;41.480;2.306;2022-09-24T07:09:10;19.70;99.90
16253;DHT22;8234;41.480;2.306;2022-09-24T07:19:15;19.80;99.90
16253;DHT22;8234;41.480;2.306;2022-09-24T07:29:19;19.80;99.90
16253;DHT22;8234;41.480;2.306;2022-09-24T07:39:24;20.00;99.90
16253;DHT22;8234;41.480;2.306;2022-09-24T07:49:28;20.20;99.90
16253;DHT22;8234;41.480;2.306;2022-09-24T07:59:35;20.40;99.90
16253;DHT22;8234;41.480;2.306;2022-09-24T08:09:39;20.60;99.90
16253;DHT22;8234;41.480;2.306;2022-09-24T08:19:44;20.70;99.90
16253;DHT22;8234;41.480;2.306;2022-09-24T08:29:48;21.00;99.90
16253;DHT22;8234;41.480;2.306;2022-09-24T08:39:54;21.00;99.90
16253;DHT22;8234;41.480;2.306;2022-09-24T08:50:04;21.00;99.90
16253;DHT22;8234;41.480;2.306;2022-09-24T09:00:14;21.80;99.90
16253;DHT22;8234;41.480;2.306;2022-09-24T09:10:22;22.20;99.90
16253;DHT22;8234;41.480;2.306;2022-09-24T09:20:34;22.60;99.90
16253;DHT22;8234;41.480;2.306;2022-09-24T09:30:44;23.10;99.90
16253;DHT22;8234;41.480;2.306;2022-09-24T09:40:56;23.20;99.90
16253;DHT22;8234;41.480;2.306;2022-09-24T09:51:04;22.40;99.90
16253;DHT22;8234;41.480;2.306;2022-09-24T10:01:11;22.50;99.90
16253;DHT22;8234;41.480;2.306;2022-09-24T10:11:16;22.80;99.90
16253;DHT22;8234;41.480;2.306;2022-09-24T10:21:29;22.70;99.90
16253;DHT22;8234;41.480;2.306;2022-09-24T10:31:38;22.60;99.90
16253;DHT22;8234;41.480;2.306;2022-09-24T10:41:47;22.30;99.90
16253;DHT22;8234;41.480;2.306;2022-09-24T10:51:57;22.50;99.90
16253;DHT22;8234;41.480;2.306;2022-09-24T11:13:01;22.90;99.90
16253;DHT22;8234;41.480;2.306;2022-09-24T11:23:27;24.50;99.90
16253;DHT22;8234;41.480;2.306;2022-09-24T11:33:44;24.50;99.90
16253;DHT22;8234;41.480;2.306;2022-09-24T11:44:12;24.70;99.90
16253;DHT22;8234;41.480;2.306;2022-09-24T11:54:28;25.30;99.90
16253;DHT22;8234;41.480;2.306;2022-09-24T12:04:44;24.90;99.90
16253;DHT22;8234;41.480;2.306;2022-09-24T12:14:54;24.90;99.90
16253;DHT22;8234;41.480;2.306;2022-09-24T12:24:59;24.40;99.90
16253;DHT22;8234;41.480;2.306;2022-09-24T12:35:13;23.60;99.90
16253;DHT22;8234;41.480;2.306;2022-09-24T12:45:22;23.70;99.90
16253;DHT22;8234;41.480;2.306;2022-09-24T12:55:29;23.80;99.90
16253;DHT22;8234;41.480;2.306;2022-09-24T13:05:47;23.30;99.90
16253;DHT22;8234;41.480;2.306;2022-09-24T13:15:59;24.20;99.90
16253;DHT22;8234;41.480;2.306;2022-09-24T13:26:06;24.30;99.90
16253;DHT22;8234;41.480;2.306;2022-09-24T13:36:13;24.50;99.90
16253;DHT22;8234;41.480;2.306;2022-09-24T13:46:19;24.50;99.90
16253;DHT22;8234;41.480;2.306;2022-09-24T13:56:24;24.40;99.90
16253;DHT22;8234;41.480;2.306;2022-09-24T14:06:32;25.30;99.90
16253;DHT22;8234;41.480;2.306;2022-09-24T14:16:38;26.80;99.90
16253;DHT22;8234;41.480;2.306;2022-09-24T14:26:45;25.10;99.90
16253;DHT22;8234;41.480;2.306;2022-09-24T14:36:51;27.80;99.90
16253;DHT22;8234;41.480;2.306;2022-09-24T14:46:56;25.70;99.90
16253;DHT22;8234;41.480;2.306;2022-09-24T14:57:10;26.80;99.90
16253;DHT22;8234;41.480;2.306;2022-09-24T15:07:15;24.70;99.90
16253;DHT22;8234;41.480;2.306;2022-09-24T15:17:22;24.60;99.90
16253;DHT22;8234;41.480;2.306;2022-09-24T15:27:29;23.90;99.90
16253;DHT22;8234;41.480;2.306;2022-09-24T15:37:37;23.70;99.90
16253;DHT22;8234;41.480;2.306;2022-09-24T15:47:41;23.30;99.90
16253;DHT22;8234;41.480;2.306;2022-09-24T15:57:46;23.40;99.90
16253;DHT22;8234;41.480;2.306;2022-09-24T16:07:50;23.30;99.90
16253;DHT22;8234;41.480;2.306;2022-09-24T16:17:55;23.00;99.90
16253;DHT22;8234;41.480;2.306;2022-09-24T16:27:59;22.90;99.90
16253;DHT22;8234;41.480;2.306;2022-09-24T16:38:04;22.90;99.90
16253;DHT22;8234;41.480;2.306;2022-09-24T16:48:10;22.80;99.90
16253;DHT22;8234;41.480;2.306;2022-09-24T16:58:16;22.50;99.90
16253;DHT22;8234;41.480;2.306;2022-09-24T17:08:19;22.30;99.90
16253;DHT22;8234;41.480;2.306;2022-09-24T17:18:24;22.30;99.90
16253;DHT22;8234;41.480;2.306;2022-09-24T17:28:31;22.30;99.90
16253;DHT22;8234;41.480;2.306;2022-09-24T17:38:36;22.00;99.90
16253;DHT22;8234;41.480;2.306;2022-09-24T17:48:41;21.80;99.90
16253;DHT22;8234;41.480;2.306;2022-09-24T17:58:47;21.50;99.90
16253;DHT22;8234;41.480;2.306;2022-09-24T18:08:51;21.40;99.90
16253;DHT22;8234;41.480;2.306;2022-09-24T18:18:57;21.40;99.90
16253;DHT22;8234;41.480;2.306;2022-09-24T18:29:04;21.40;99.90
16253;DHT22;8234;41.480;2.306;2022-09-24T18:39:13;21.30;99.90
16253;DHT22;8234;41.480;2.306;2022-09-24T18:49:26;21.30;99.90
16253;DHT22;8234;41.480;2.306;2022-09-24T18:59:31;21.30;99.90
16253;DHT22;8234;41.480;2.306;2022-09-24T19:09:39;21.20;99.90
16253;DHT22;8234;41.480;2.306;2022-09-24T19:19:44;21.20;99.90
16253;DHT22;8234;41.480;2.306;2022-09-24T19:29:53;20.90;99.90
16253;DHT22;8234;41.480;2.306;2022-09-24T19:39:58;20.80;99.90
16253;DHT22;8234;41.480;2.306;2022-09-24T19:50:02;20.80;99.90
16253;DHT22;8234;41.480;2.306;2022-09-24T20:00:08;20.70;99.90
16253;DHT22;8234;41.480;2.306;2022-09-24T20:10:13;20.60;99.90
16253;DHT22;8234;41.480;2.306;2022-09-24T20:20:18;20.60;99.90
16253;DHT22;8234;41.480;2.306;2022-09-24T20:30:21;20.60;99.90
16253;DHT22;8234;41.480;2.306;2022-09-24T20:40:27;20.40;99.90
16253;DHT22;8234;41.480;2.306;2022-09-24T20:50:33;20.30;99.90
16253;DHT22;8234;41.480;2.306;2022-09-24T21:00:39;20.20;99.90
16253;DHT22;8234;41.480;2.306;2022-09-24T21:10:58;19.80;99.90
16253;DHT22;8234;41.480;2.306;2022-09-24T21:21:05;19.80;99.90
16253;DHT22;8234;41.480;2.306;2022-09-24T21:31:09;19.90;99.90
16253;DHT22;8234;41.480;2.306;2022-09-24T21:41:14;20.00;99.90
16253;DHT22;8234;41.480;2.306;2022-09-24T21:51:19;19.90;99.90
16253;DHT22;8234;41.480;2.306;2022-09-24T22:01:27;20.10;99.90
16253;DHT22;8234;41.480;2.306;2022-09-24T22:11:31;19.70;99.90
16253;DHT22;8234;41.480;2.306;2022-09-24T22:21:37;19.40;99.90
16253;DHT22;8234;41.480;2.306;2022-09-24T22:31:41;19.60;99.90
16253;DHT22;8234;41.480;2.306;2022-09-24T22:41:46;19.70;99.90
16253;DHT22;8234;41.480;2.306;2022-09-24T22:51:50;19.60;99.90
16253;DHT22;8234;41.480;2.306;2022-09-24T23:01:55;19.20;99.90
16253;DHT22;8234;41.480;2.306;2022-09-24T23:11:59;17.10;99.90
16253;DHT22;8234;41.480;2.306;2022-09-24T23:22:04;16.70;99.90
16253;DHT22;8234;41.480;2.306;2022-09-24T23:32:08;16.80;99.90
16253;DHT22;8234;41.480;2.306;2022-09-24T23:42:13;16.90;99.90
16253;DHT22;8234;41.480;2.306;2022-09-24T23:52:17;16.80;99.90
